Terminal Aerodrome Forecast
Issued by NWS

Home | Current Version | Previous Version | Text Only | Print | Product List | Glossary On
Versions: 1 2 3 4 5 6 7 8 9 10 11 12 13 14
000
FTUS43 KGLD 261721
TAFMCK
TAF
KMCK 261721Z 2618/2718 17015KT P6SM SKC
     FM262100 16015G23KT P6SM SKC
     FM270500 16011KT P6SM FEW130 FEW250 WS020/17040KT
     FM271300 15008KT P6SM FEW080 SCT250 WS014/19025KT
     FM271500 16012KT P6SM FEW080 SCT250=

USA.gov is the U.S. government's official web portal to all federal, state and local government web resources and services.